CheckWX is a tool to help pilots better visualize weather data.  It is not intended as a substitute for an official pre-flight weather briefing.

17:31:48 UTC

CYRV METAR
Revelstoke Airport
Revelstoke, Canada
Current

32 mins ago

CYRV 241700Z AUTO 19003KT 9SM BKN110 03/01 A3015 RMK SLP228
Observed
Mar-24 @ 17:00 UTC
Wind
  • 190° at 3 KTS
Visibility
9 SM
Flight Rules
VFR
Cloud Levels
  • Broken at 11,000' AGL
Temperature
C / 37°F
Dewpoint
C / 34°F
Humidity
87%
Altimeter
30.15" Hg
Pressure
1022.8 hPa
Previous

2 hours ago

CYRV 241600Z AUTO 19003KT 050V210 9SM FEW110 SCT150 01/M01 A3015 RMK SLP231
Observed
Mar-24 @ 16:00 UTC
Wind
  • 190° at 3 KTS
Visibility
9 SM
Flight Rules
VFR
Cloud Levels
  • Few at 11,000' AGL
  • Scattered at 15,000' AGL
Temperature
C / 34°F
Dewpoint
-1°C / 30°F
Humidity
87%
Altimeter
30.15" Hg
Pressure
1023.1 hPa
Previous

3 hours ago

CYRV 241500Z AUTO 00000KT 9SM SCT110 SCT130 BKN150 M01/M01 A3016 RMK SLP233
Observed
Mar-24 @ 15:00 UTC
Visibility
9 SM
Flight Rules
VFR
Cloud Levels
  • Scattered at 11,000' AGL
  • Scattered at 13,000' AGL
  • Broken at 15,000' AGL
Temperature
-1°C / 30°F
Dewpoint
-1°C / 30°F
Humidity
100%
Altimeter
30.16" Hg
Pressure
1023.3 hPa